Terminal Aerodrome Forecast
Issued by NWS

Home | Current Version | Previous Version | Text Only | Print | Product List | Glossary On
Versions: 1 2 3 4 5 6 7 8 9 10 11 12 13 14 15 16 17 18 19 20 21 22 23 24 25 26 27 28
000
FTUS44 KOUN 272337
TAFCSM
TAF
KCSM 272337Z 2800/2824 08010KT 4SM -SN SCT015 OVC035
     FM280900 10009KT 1SM -SN OVC015
     FM281800 14010KT 5SM -FZDZ OVC008=

USA.gov is the U.S. government's official web portal to all federal, state and local government web resources and services.